sensor_id;sensor_type;location;lat;lon;timestamp;temperature;humidity
14053;DHT22;7101;51.600;7.310;2023-03-16T00:00:43;1.90;99.90
14053;DHT22;7101;51.600;7.310;2023-03-16T00:03:11;1.90;99.90
14053;DHT22;7101;51.600;7.310;2023-03-16T00:05:45;1.90;99.90
14053;DHT22;7101;51.600;7.310;2023-03-16T00:08:15;1.90;99.90
14053;DHT22;7101;51.600;7.310;2023-03-16T00:10:43;1.90;99.90
14053;DHT22;7101;51.600;7.310;2023-03-16T00:13:12;1.90;99.90
14053;DHT22;7101;51.600;7.310;2023-03-16T00:15:40;1.80;99.90
14053;DHT22;7101;51.600;7.310;2023-03-16T00:18:08;1.80;99.90
14053;DHT22;7101;51.600;7.310;2023-03-16T00:20:35;1.70;99.90
14053;DHT22;7101;51.600;7.310;2023-03-16T00:23:03;1.80;99.90
14053;DHT22;7101;51.600;7.310;2023-03-16T00:25:30;1.80;99.90
14053;DHT22;7101;51.600;7.310;2023-03-16T00:27:58;1.90;99.90
14053;DHT22;7101;51.600;7.310;2023-03-16T00:30:28;1.90;99.90
14053;DHT22;7101;51.600;7.310;2023-03-16T00:32:56;1.80;99.90
14053;DHT22;7101;51.600;7.310;2023-03-16T00:35:24;1.80;99.90
14053;DHT22;7101;51.600;7.310;2023-03-16T00:37:50;1.80;99.90
14053;DHT22;7101;51.600;7.310;2023-03-16T00:40:23;1.80;99.90
14053;DHT22;7101;51.600;7.310;2023-03-16T00:42:50;1.80;99.90
14053;DHT22;7101;51.600;7.310;2023-03-16T00:45:19;1.70;99.90
14053;DHT22;7101;51.600;7.310;2023-03-16T00:47:46;1.70;99.90
14053;DHT22;7101;51.600;7.310;2023-03-16T00:50:13;1.60;99.90
14053;DHT22;7101;51.600;7.310;2023-03-16T00:52:40;1.60;99.90
14053;DHT22;7101;51.600;7.310;2023-03-16T00:55:08;1.60;99.90
14053;DHT22;7101;51.600;7.310;2023-03-16T00:57:36;1.60;99.90
14053;DHT22;7101;51.600;7.310;2023-03-16T01:00:04;1.60;99.90
14053;DHT22;7101;51.600;7.310;2023-03-16T01:02:37;1.60;99.90
14053;DHT22;7101;51.600;7.310;2023-03-16T01:05:06;1.70;99.90
14053;DHT22;7101;51.600;7.310;2023-03-16T01:07:34;1.60;99.90
14053;DHT22;7101;51.600;7.310;2023-03-16T01:10:01;1.60;99.90
14053;DHT22;7101;51.600;7.310;2023-03-16T01:12:28;1.50;99.90
14053;DHT22;7101;51.600;7.310;2023-03-16T01:14:57;1.50;99.90
14053;DHT22;7101;51.600;7.310;2023-03-16T01:17:24;1.40;99.90
14053;DHT22;7101;51.600;7.310;2023-03-16T01:19:50;1.40;99.90
14053;DHT22;7101;51.600;7.310;2023-03-16T01:22:17;1.30;99.90
14053;DHT22;7101;51.600;7.310;2023-03-16T01:24:44;1.30;99.90
14053;DHT22;7101;51.600;7.310;2023-03-16T01:27:13;1.50;99.90
14053;DHT22;7101;51.600;7.310;2023-03-16T01:29:40;1.50;99.90
14053;DHT22;7101;51.600;7.310;2023-03-16T01:32:10;1.70;99.90
14053;DHT22;7101;51.600;7.310;2023-03-16T01:34:37;1.70;99.90
14053;DHT22;7101;51.600;7.310;2023-03-16T01:37:04;1.80;99.90
14053;DHT22;7101;51.600;7.310;2023-03-16T01:39:31;1.80;99.90
14053;DHT22;7101;51.600;7.310;2023-03-16T01:41:58;1.90;99.90
14053;DHT22;7101;51.600;7.310;2023-03-16T01:44:26;2.00;99.90
14053;DHT22;7101;51.600;7.310;2023-03-16T01:46:57;2.00;99.90
14053;DHT22;7101;51.600;7.310;2023-03-16T01:49:28;2.10;99.90
14053;DHT22;7101;51.600;7.310;2023-03-16T01:51:59;2.20;99.90
14053;DHT22;7101;51.600;7.310;2023-03-16T01:54:30;2.30;99.90
14053;DHT22;7101;51.600;7.310;2023-03-16T01:57:03;2.50;99.90
14053;DHT22;7101;51.600;7.310;2023-03-16T01:59:33;2.60;99.90
14053;DHT22;7101;51.600;7.310;2023-03-16T02:02:01;2.70;99.90
14053;DHT22;7101;51.600;7.310;2023-03-16T02:04:39;2.80;99.90
14053;DHT22;7101;51.600;7.310;2023-03-16T02:07:08;2.90;99.90
14053;DHT22;7101;51.600;7.310;2023-03-16T02:09:36;2.90;99.90
14053;DHT22;7101;51.600;7.310;2023-03-16T02:12:06;3.00;99.90
14053;DHT22;7101;51.600;7.310;2023-03-16T02:14:33;3.00;99.90
14053;DHT22;7101;51.600;7.310;2023-03-16T02:17:00;2.90;99.90
14053;DHT22;7101;51.600;7.310;2023-03-16T02:19:36;2.90;99.90
14053;DHT22;7101;51.600;7.310;2023-03-16T02:22:08;3.00;99.90
14053;DHT22;7101;51.600;7.310;2023-03-16T02:24:36;2.80;99.90
14053;DHT22;7101;51.600;7.310;2023-03-16T02:27:05;2.80;99.90
14053;DHT22;7101;51.600;7.310;2023-03-16T02:29:53;2.80;99.90
14053;DHT22;7101;51.600;7.310;2023-03-16T02:32:22;2.70;99.90
14053;DHT22;7101;51.600;7.310;2023-03-16T02:34:49;2.60;99.90
14053;DHT22;7101;51.600;7.310;2023-03-16T02:37:17;2.60;99.90
14053;DHT22;7101;51.600;7.310;2023-03-16T02:39:44;2.50;99.90
14053;DHT22;7101;51.600;7.310;2023-03-16T02:42:14;2.40;99.90
14053;DHT22;7101;51.600;7.310;2023-03-16T02:44:43;2.40;99.90
14053;DHT22;7101;51.600;7.310;2023-03-16T02:47:21;2.40;99.90
14053;DHT22;7101;51.600;7.310;2023-03-16T02:49:49;2.40;99.90
14053;DHT22;7101;51.600;7.310;2023-03-16T02:52:16;2.30;99.90
14053;DHT22;7101;51.600;7.310;2023-03-16T02:54:43;2.30;99.90
14053;DHT22;7101;51.600;7.310;2023-03-16T02:57:10;2.20;99.90
14053;DHT22;7101;51.600;7.310;2023-03-16T02:59:37;2.20;99.90
14053;DHT22;7101;51.600;7.310;2023-03-16T03:02:04;2.20;99.90
14053;DHT22;7101;51.600;7.310;2023-03-16T03:04:32;2.10;99.90
14053;DHT22;7101;51.600;7.310;2023-03-16T03:07:00;2.00;99.90
14053;DHT22;7101;51.600;7.310;2023-03-16T03:09:30;2.10;99.90
14053;DHT22;7101;51.600;7.310;2023-03-16T03:11:58;2.10;99.90
14053;DHT22;7101;51.600;7.310;2023-03-16T03:14:25;2.10;99.90
14053;DHT22;7101;51.600;7.310;2023-03-16T03:16:54;2.20;99.90
14053;DHT22;7101;51.600;7.310;2023-03-16T03:19:21;2.20;99.90
14053;DHT22;7101;51.600;7.310;2023-03-16T03:21:51;2.30;99.90
14053;DHT22;7101;51.600;7.310;2023-03-16T03:24:22;2.30;99.90
14053;DHT22;7101;51.600;7.310;2023-03-16T03:26:49;2.40;99.90
14053;DHT22;7101;51.600;7.310;2023-03-16T03:29:17;2.50;99.90
14053;DHT22;7101;51.600;7.310;2023-03-16T03:31:45;2.50;99.90
14053;DHT22;7101;51.600;7.310;2023-03-16T03:34:12;2.50;99.90
14053;DHT22;7101;51.600;7.310;2023-03-16T03:36:39;2.50;99.90
14053;DHT22;7101;51.600;7.310;2023-03-16T03:39:08;2.50;99.90
14053;DHT22;7101;51.600;7.310;2023-03-16T03:41:35;2.60;99.90
14053;DHT22;7101;51.600;7.310;2023-03-16T03:44:03;2.50;99.90
14053;DHT22;7101;51.600;7.310;2023-03-16T03:46:30;2.50;99.90
14053;DHT22;7101;51.600;7.310;2023-03-16T03:48:57;2.50;99.90
14053;DHT22;7101;51.600;7.310;2023-03-16T03:51:28;2.50;99.90
14053;DHT22;7101;51.600;7.310;2023-03-16T03:53:55;2.50;99.90
14053;DHT22;7101;51.600;7.310;2023-03-16T03:56:24;2.50;99.90
14053;DHT22;7101;51.600;7.310;2023-03-16T03:58:52;2.50;99.90
14053;DHT22;7101;51.600;7.310;2023-03-16T04:01:20;2.50;99.90
14053;DHT22;7101;51.600;7.310;2023-03-16T04:03:47;2.50;99.90
14053;DHT22;7101;51.600;7.310;2023-03-16T04:06:14;2.50;99.90
14053;DHT22;7101;51.600;7.310;2023-03-16T04:08:41;2.50;99.90
14053;DHT22;7101;51.600;7.310;2023-03-16T04:11:08;2.50;99.90
14053;DHT22;7101;51.600;7.310;2023-03-16T04:13:37;2.70;99.90
14053;DHT22;7101;51.600;7.310;2023-03-16T04:16:05;2.70;99.90
14053;DHT22;7101;51.600;7.310;2023-03-16T04:18:31;2.70;99.90
14053;DHT22;7101;51.600;7.310;2023-03-16T04:21:03;2.80;99.90
14053;DHT22;7101;51.600;7.310;2023-03-16T04:23:31;2.80;99.90
14053;DHT22;7101;51.600;7.310;2023-03-16T04:25:59;2.90;99.90
14053;DHT22;7101;51.600;7.310;2023-03-16T04:28:26;2.80;99.90
14053;DHT22;7101;51.600;7.310;2023-03-16T04:30:54;2.90;99.90
14053;DHT22;7101;51.600;7.310;2023-03-16T04:33:21;2.90;99.90
14053;DHT22;7101;51.600;7.310;2023-03-16T04:35:48;2.90;99.90
14053;DHT22;7101;51.600;7.310;2023-03-16T04:38:16;3.00;99.90
14053;DHT22;7101;51.600;7.310;2023-03-16T04:40:44;3.00;99.90
14053;DHT22;7101;51.600;7.310;2023-03-16T04:43:11;3.00;99.90
14053;DHT22;7101;51.600;7.310;2023-03-16T04:45:38;3.10;99.90
14053;DHT22;7101;51.600;7.310;2023-03-16T04:48:07;3.10;99.90
14053;DHT22;7101;51.600;7.310;2023-03-16T04:50:35;3.20;99.90
14053;DHT22;7101;51.600;7.310;2023-03-16T04:53:02;3.20;99.90
14053;DHT22;7101;51.600;7.310;2023-03-16T04:55:30;3.20;99.90
14053;DHT22;7101;51.600;7.310;2023-03-16T04:57:57;3.20;99.90
14053;DHT22;7101;51.600;7.310;2023-03-16T05:00:24;3.30;99.90
14053;DHT22;7101;51.600;7.310;2023-03-16T05:02:53;3.30;99.90
14053;DHT22;7101;51.600;7.310;2023-03-16T05:05:21;3.50;99.90
14053;DHT22;7101;51.600;7.310;2023-03-16T05:07:49;3.50;99.90
14053;DHT22;7101;51.600;7.310;2023-03-16T05:10:17;3.50;99.90
14053;DHT22;7101;51.600;7.310;2023-03-16T05:12:44;3.50;99.90
14053;DHT22;7101;51.600;7.310;2023-03-16T05:15:11;3.50;99.90
14053;DHT22;7101;51.600;7.310;2023-03-16T05:17:39;3.50;99.90
14053;DHT22;7101;51.600;7.310;2023-03-16T05:20:08;3.50;99.90
14053;DHT22;7101;51.600;7.310;2023-03-16T05:22:39;3.60;99.90
14053;DHT22;7101;51.600;7.310;2023-03-16T05:25:07;3.60;99.90
14053;DHT22;7101;51.600;7.310;2023-03-16T05:27:34;3.60;99.90
14053;DHT22;7101;51.600;7.310;2023-03-16T05:30:01;3.70;99.90
14053;DHT22;7101;51.600;7.310;2023-03-16T05:32:27;3.60;99.90
14053;DHT22;7101;51.600;7.310;2023-03-16T05:34:54;3.60;99.90
14053;DHT22;7101;51.600;7.310;2023-03-16T05:37:21;3.60;99.90
14053;DHT22;7101;51.600;7.310;2023-03-16T05:39:51;3.70;99.90
14053;DHT22;7101;51.600;7.310;2023-03-16T05:42:19;3.80;99.90
14053;DHT22;7101;51.600;7.310;2023-03-16T05:44:46;3.90;99.90
14053;DHT22;7101;51.600;7.310;2023-03-16T05:47:13;3.90;99.90
14053;DHT22;7101;51.600;7.310;2023-03-16T05:49:41;3.90;99.90
14053;DHT22;7101;51.600;7.310;2023-03-16T05:52:08;3.90;99.90
14053;DHT22;7101;51.600;7.310;2023-03-16T05:54:35;4.00;99.90
14053;DHT22;7101;51.600;7.310;2023-03-16T05:57:03;4.00;99.90
14053;DHT22;7101;51.600;7.310;2023-03-16T05:59:32;4.00;99.90
14053;DHT22;7101;51.600;7.310;2023-03-16T06:01:59;4.00;99.90
14053;DHT22;7101;51.600;7.310;2023-03-16T06:04:27;4.10;99.90
14053;DHT22;7101;51.600;7.310;2023-03-16T06:06:54;4.10;99.90
14053;DHT22;7101;51.600;7.310;2023-03-16T06:09:21;4.20;99.90
14053;DHT22;7101;51.600;7.310;2023-03-16T06:11:48;4.20;99.90
14053;DHT22;7101;51.600;7.310;2023-03-16T06:14:16;4.30;99.90
14053;DHT22;7101;51.600;7.310;2023-03-16T06:16:43;4.30;99.90
14053;DHT22;7101;51.600;7.310;2023-03-16T06:19:10;4.30;99.90
14053;DHT22;7101;51.600;7.310;2023-03-16T06:21:37;4.40;99.90
14053;DHT22;7101;51.600;7.310;2023-03-16T06:24:04;4.40;99.90
14053;DHT22;7101;51.600;7.310;2023-03-16T06:26:33;4.50;99.90
14053;DHT22;7101;51.600;7.310;2023-03-16T06:29:00;4.50;99.90
14053;DHT22;7101;51.600;7.310;2023-03-16T06:31:29;4.60;99.90
14053;DHT22;7101;51.600;7.310;2023-03-16T06:33:59;4.70;99.90
14053;DHT22;7101;51.600;7.310;2023-03-16T06:36:27;4.80;99.90
14053;DHT22;7101;51.600;7.310;2023-03-16T06:38:54;4.80;99.90
14053;DHT22;7101;51.600;7.310;2023-03-16T06:41:21;4.90;99.90
14053;DHT22;7101;51.600;7.310;2023-03-16T06:43:47;5.00;99.90
14053;DHT22;7101;51.600;7.310;2023-03-16T06:46:14;5.10;99.90
14053;DHT22;7101;51.600;7.310;2023-03-16T06:48:42;5.20;99.90
14053;DHT22;7101;51.600;7.310;2023-03-16T06:51:12;5.30;99.90
14053;DHT22;7101;51.600;7.310;2023-03-16T06:53:38;5.30;99.90
14053;DHT22;7101;51.600;7.310;2023-03-16T06:56:06;5.30;99.90
14053;DHT22;7101;51.600;7.310;2023-03-16T06:58:33;5.30;99.90
14053;DHT22;7101;51.600;7.310;2023-03-16T07:01:00;5.40;99.90
14053;DHT22;7101;51.600;7.310;2023-03-16T07:03:28;5.60;99.90
14053;DHT22;7101;51.600;7.310;2023-03-16T07:05:56;5.80;99.90
14053;DHT22;7101;51.600;7.310;2023-03-16T07:08:23;5.90;99.90
14053;DHT22;7101;51.600;7.310;2023-03-16T07:10:50;6.00;99.90
14053;DHT22;7101;51.600;7.310;2023-03-16T07:13:17;6.10;99.90
14053;DHT22;7101;51.600;7.310;2023-03-16T07:15:44;6.20;99.90
14053;DHT22;7101;51.600;7.310;2023-03-16T07:18:11;6.20;99.90
14053;DHT22;7101;51.600;7.310;2023-03-16T07:20:38;6.20;99.90
14053;DHT22;7101;51.600;7.310;2023-03-16T07:23:06;6.30;99.90
14053;DHT22;7101;51.600;7.310;2023-03-16T07:25:32;6.20;99.90
14053;DHT22;7101;51.600;7.310;2023-03-16T07:27:59;6.20;99.90
14053;DHT22;7101;51.600;7.310;2023-03-16T07:30:26;6.40;99.90
14053;DHT22;7101;51.600;7.310;2023-03-16T07:32:54;6.40;99.90
14053;DHT22;7101;51.600;7.310;2023-03-16T07:35:21;6.30;99.90
14053;DHT22;7101;51.600;7.310;2023-03-16T07:37:48;6.40;99.90
14053;DHT22;7101;51.600;7.310;2023-03-16T07:40:17;6.30;99.90
14053;DHT22;7101;51.600;7.310;2023-03-16T07:42:44;6.40;99.90
14053;DHT22;7101;51.600;7.310;2023-03-16T07:45:11;6.50;99.90
14053;DHT22;7101;51.600;7.310;2023-03-16T07:47:39;6.60;99.90
14053;DHT22;7101;51.600;7.310;2023-03-16T07:50:07;6.60;99.90
14053;DHT22;7101;51.600;7.310;2023-03-16T07:52:34;6.60;99.90
14053;DHT22;7101;51.600;7.310;2023-03-16T07:55:02;6.60;99.90
14053;DHT22;7101;51.600;7.310;2023-03-16T07:57:31;6.70;99.90
14053;DHT22;7101;51.600;7.310;2023-03-16T07:59:58;6.70;99.90
14053;DHT22;7101;51.600;7.310;2023-03-16T08:02:25;6.70;99.90
14053;DHT22;7101;51.600;7.310;2023-03-16T08:04:51;6.80;99.90
14053;DHT22;7101;51.600;7.310;2023-03-16T08:07:21;6.90;99.90
14053;DHT22;7101;51.600;7.310;2023-03-16T08:09:48;7.20;99.90
14053;DHT22;7101;51.600;7.310;2023-03-16T08:12:16;7.50;99.90
14053;DHT22;7101;51.600;7.310;2023-03-16T08:14:44;7.80;99.90
14053;DHT22;7101;51.600;7.310;2023-03-16T08:17:11;7.90;99.90
14053;DHT22;7101;51.600;7.310;2023-03-16T08:19:38;8.10;99.90
14053;DHT22;7101;51.600;7.310;2023-03-16T08:22:05;8.30;99.90
14053;DHT22;7101;51.600;7.310;2023-03-16T08:24:32;8.30;99.90
14053;DHT22;7101;51.600;7.310;2023-03-16T08:26:59;8.30;99.90
14053;DHT22;7101;51.600;7.310;2023-03-16T08:29:27;8.30;99.90
14053;DHT22;7101;51.600;7.310;2023-03-16T08:31:55;8.30;99.90
14053;DHT22;7101;51.600;7.310;2023-03-16T08:34:22;8.40;99.90
14053;DHT22;7101;51.600;7.310;2023-03-16T08:36:49;8.60;99.90
14053;DHT22;7101;51.600;7.310;2023-03-16T08:39:16;8.60;99.90
14053;DHT22;7101;51.600;7.310;2023-03-16T08:41:43;8.70;99.90
14053;DHT22;7101;51.600;7.310;2023-03-16T08:44:10;8.90;99.90
14053;DHT22;7101;51.600;7.310;2023-03-16T08:46:37;8.70;99.90
14053;DHT22;7101;51.600;7.310;2023-03-16T08:49:06;8.90;99.90
14053;DHT22;7101;51.600;7.310;2023-03-16T08:51:33;8.80;99.90
14053;DHT22;7101;51.600;7.310;2023-03-16T08:54:00;8.90;99.90
14053;DHT22;7101;51.600;7.310;2023-03-16T08:56:27;9.00;99.90
14053;DHT22;7101;51.600;7.310;2023-03-16T08:58:55;9.10;99.90
14053;DHT22;7101;51.600;7.310;2023-03-16T09:01:22;9.30;99.90
14053;DHT22;7101;51.600;7.310;2023-03-16T09:03:50;9.20;99.90
14053;DHT22;7101;51.600;7.310;2023-03-16T09:06:18;9.10;99.90
14053;DHT22;7101;51.600;7.310;2023-03-16T09:08:46;8.80;99.90
14053;DHT22;7101;51.600;7.310;2023-03-16T09:11:15;8.70;99.90
14053;DHT22;7101;51.600;7.310;2023-03-16T09:13:43;8.60;99.90
14053;DHT22;7101;51.600;7.310;2023-03-16T09:16:11;8.30;99.90
14053;DHT22;7101;51.600;7.310;2023-03-16T09:18:38;8.20;99.90
14053;DHT22;7101;51.600;7.310;2023-03-16T09:21:08;7.90;99.90
14053;DHT22;7101;51.600;7.310;2023-03-16T09:23:36;7.90;99.90
14053;DHT22;7101;51.600;7.310;2023-03-16T09:26:05;8.00;99.90
14053;DHT22;7101;51.600;7.310;2023-03-16T09:28:34;8.00;99.90
14053;DHT22;7101;51.600;7.310;2023-03-16T09:31:03;8.00;99.90
14053;DHT22;7101;51.600;7.310;2023-03-16T09:33:30;7.90;99.90
14053;DHT22;7101;51.600;7.310;2023-03-16T09:35:58;8.00;99.90
14053;DHT22;7101;51.600;7.310;2023-03-16T09:38:25;8.00;99.90
14053;DHT22;7101;51.600;7.310;2023-03-16T09:40:58;8.00;99.90
14053;DHT22;7101;51.600;7.310;2023-03-16T09:43:38;8.00;99.90
14053;DHT22;7101;51.600;7.310;2023-03-16T09:46:11;8.00;99.90
14053;DHT22;7101;51.600;7.310;2023-03-16T09:48:41;8.00;99.90
14053;DHT22;7101;51.600;7.310;2023-03-16T09:51:16;8.20;99.90
14053;DHT22;7101;51.600;7.310;2023-03-16T09:53:45;8.60;99.90
14053;DHT22;7101;51.600;7.310;2023-03-16T09:56:21;8.90;99.90
14053;DHT22;7101;51.600;7.310;2023-03-16T09:58:51;9.20;99.90
14053;DHT22;7101;51.600;7.310;2023-03-16T10:01:25;9.50;99.90
14053;DHT22;7101;51.600;7.310;2023-03-16T10:04:08;9.50;99.90
14053;DHT22;7101;51.600;7.310;2023-03-16T10:06:44;9.70;99.90
14053;DHT22;7101;51.600;7.310;2023-03-16T10:09:23;9.80;99.90
14053;DHT22;7101;51.600;7.310;2023-03-16T10:11:54;9.60;99.90
14053;DHT22;7101;51.600;7.310;2023-03-16T10:14:26;9.50;99.90
14053;DHT22;7101;51.600;7.310;2023-03-16T10:16:58;9.60;99.90
14053;DHT22;7101;51.600;7.310;2023-03-16T10:19:33;9.70;99.90
14053;DHT22;7101;51.600;7.310;2023-03-16T10:22:14;9.80;99.90
14053;DHT22;7101;51.600;7.310;2023-03-16T10:24:51;10.00;99.90
14053;DHT22;7101;51.600;7.310;2023-03-16T10:27:27;10.30;99.90
14053;DHT22;7101;51.600;7.310;2023-03-16T10:30:02;10.60;99.90
14053;DHT22;7101;51.600;7.310;2023-03-16T10:32:33;10.60;99.90
14053;DHT22;7101;51.600;7.310;2023-03-16T10:35:13;10.60;99.90
14053;DHT22;7101;51.600;7.310;2023-03-16T10:37:43;10.70;99.90
14053;DHT22;7101;51.600;7.310;2023-03-16T10:40:11;10.50;99.90
14053;DHT22;7101;51.600;7.310;2023-03-16T10:42:41;10.30;99.90
14053;DHT22;7101;51.600;7.310;2023-03-16T10:45:22;10.20;99.90
14053;DHT22;7101;51.600;7.310;2023-03-16T10:47:49;10.10;99.90
14053;DHT22;7101;51.600;7.310;2023-03-16T10:50:22;10.20;99.90
14053;DHT22;7101;51.600;7.310;2023-03-16T10:52:51;10.00;99.90
14053;DHT22;7101;51.600;7.310;2023-03-16T10:55:22;10.00;99.90
14053;DHT22;7101;51.600;7.310;2023-03-16T10:57:53;10.10;99.90
14053;DHT22;7101;51.600;7.310;2023-03-16T11:00:25;10.00;99.90
14053;DHT22;7101;51.600;7.310;2023-03-16T11:02:55;9.80;99.90
14053;DHT22;7101;51.600;7.310;2023-03-16T11:05:28;9.80;99.90
14053;DHT22;7101;51.600;7.310;2023-03-16T11:07:59;9.70;99.90
14053;DHT22;7101;51.600;7.310;2023-03-16T11:10:31;9.60;99.90
14053;DHT22;7101;51.600;7.310;2023-03-16T11:13:09;9.70;99.90
14053;DHT22;7101;51.600;7.310;2023-03-16T11:15:42;9.90;99.90
14053;DHT22;7101;51.600;7.310;2023-03-16T11:18:21;9.80;99.90
14053;DHT22;7101;51.600;7.310;2023-03-16T11:20:48;9.60;99.90
14053;DHT22;7101;51.600;7.310;2023-03-16T11:23:17;9.60;99.90
14053;DHT22;7101;51.600;7.310;2023-03-16T11:25:49;9.60;99.90
14053;DHT22;7101;51.600;7.310;2023-03-16T11:28:26;9.70;99.90
14053;DHT22;7101;51.600;7.310;2023-03-16T11:31:02;9.70;99.90
14053;DHT22;7101;51.600;7.310;2023-03-16T11:33:33;9.70;99.90
14053;DHT22;7101;51.600;7.310;2023-03-16T11:36:07;9.70;99.90
14053;DHT22;7101;51.600;7.310;2023-03-16T11:38:43;9.70;99.90
14053;DHT22;7101;51.600;7.310;2023-03-16T11:41:19;9.90;99.90
14053;DHT22;7101;51.600;7.310;2023-03-16T11:43:51;10.00;99.90
14053;DHT22;7101;51.600;7.310;2023-03-16T11:46:21;10.00;99.90
14053;DHT22;7101;51.600;7.310;2023-03-16T11:49:00;10.20;99.90
14053;DHT22;7101;51.600;7.310;2023-03-16T11:51:34;10.60;99.90
14053;DHT22;7101;51.600;7.310;2023-03-16T11:54:15;10.80;99.90
14053;DHT22;7101;51.600;7.310;2023-03-16T11:56:44;11.20;99.90
14053;DHT22;7101;51.600;7.310;2023-03-16T11:59:30;10.90;99.90
14053;DHT22;7101;51.600;7.310;2023-03-16T12:02:21;10.80;99.90
14053;DHT22;7101;51.600;7.310;2023-03-16T12:05:03;10.90;99.90
14053;DHT22;7101;51.600;7.310;2023-03-16T12:07:45;11.00;99.90
14053;DHT22;7101;51.600;7.310;2023-03-16T12:10:22;10.60;99.90
14053;DHT22;7101;51.600;7.310;2023-03-16T12:12:58;10.90;99.90
14053;DHT22;7101;51.600;7.310;2023-03-16T12:15:38;10.90;99.90
14053;DHT22;7101;51.600;7.310;2023-03-16T12:18:15;11.10;99.90
14053;DHT22;7101;51.600;7.310;2023-03-16T12:20:54;11.40;99.90
14053;DHT22;7101;51.600;7.310;2023-03-16T12:23:29;11.50;98.30
14053;DHT22;7101;51.600;7.310;2023-03-16T12:25:57;11.70;99.20
14053;DHT22;7101;51.600;7.310;2023-03-16T12:28:27;11.70;96.50
14053;DHT22;7101;51.600;7.310;2023-03-16T12:31:07;11.70;99.00
14053;DHT22;7101;51.600;7.310;2023-03-16T12:33:51;11.90;96.10
14053;DHT22;7101;51.600;7.310;2023-03-16T12:36:50;11.70;96.80
14053;DHT22;7101;51.600;7.310;2023-03-16T12:39:28;11.70;96.50
14053;DHT22;7101;51.600;7.310;2023-03-16T12:42:09;11.90;97.20
14053;DHT22;7101;51.600;7.310;2023-03-16T12:44:46;12.10;95.30
14053;DHT22;7101;51.600;7.310;2023-03-16T12:47:19;12.00;93.70
14053;DHT22;7101;51.600;7.310;2023-03-16T12:49:48;11.70;92.80
14053;DHT22;7101;51.600;7.310;2023-03-16T12:52:16;11.80;95.70
14053;DHT22;7101;51.600;7.310;2023-03-16T12:54:50;11.80;95.60
14053;DHT22;7101;51.600;7.310;2023-03-16T12:57:21;12.00;95.50
14053;DHT22;7101;51.600;7.310;2023-03-16T13:00:06;12.10;93.00
14053;DHT22;7101;51.600;7.310;2023-03-16T13:02:37;11.70;93.30
14053;DHT22;7101;51.600;7.310;2023-03-16T13:05:08;11.70;95.50
14053;DHT22;7101;51.600;7.310;2023-03-16T13:07:36;11.90;95.70
14053;DHT22;7101;51.600;7.310;2023-03-16T13:10:13;11.90;94.00
14053;DHT22;7101;51.600;7.310;2023-03-16T13:12:42;11.30;93.30
14053;DHT22;7101;51.600;7.310;2023-03-16T13:15:27;11.50;96.10
14053;DHT22;7101;51.600;7.310;2023-03-16T13:18:19;11.80;94.40
14053;DHT22;7101;51.600;7.310;2023-03-16T13:20:52;12.10;96.20
14053;DHT22;7101;51.600;7.310;2023-03-16T13:23:23;12.00;93.90
14053;DHT22;7101;51.600;7.310;2023-03-16T13:26:03;12.10;94.30
14053;DHT22;7101;51.600;7.310;2023-03-16T13:28:32;12.00;94.70
14053;DHT22;7101;51.600;7.310;2023-03-16T13:31:01;11.90;92.30
14053;DHT22;7101;51.600;7.310;2023-03-16T13:33:30;11.80;94.40
14053;DHT22;7101;51.600;7.310;2023-03-16T13:36:00;12.10;94.80
14053;DHT22;7101;51.600;7.310;2023-03-16T13:38:29;12.70;94.30
14053;DHT22;7101;51.600;7.310;2023-03-16T13:40:57;12.50;94.20
14053;DHT22;7101;51.600;7.310;2023-03-16T13:43:29;12.50;92.00
14053;DHT22;7101;51.600;7.310;2023-03-16T13:45:58;12.50;91.50
14053;DHT22;7101;51.600;7.310;2023-03-16T13:48:25;12.40;93.50
14053;DHT22;7101;51.600;7.310;2023-03-16T13:50:55;12.40;91.00
14053;DHT22;7101;51.600;7.310;2023-03-16T13:53:24;12.50;93.10
14053;DHT22;7101;51.600;7.310;2023-03-16T13:55:53;12.60;90.50
14053;DHT22;7101;51.600;7.310;2023-03-16T13:58:23;12.60;91.70
14053;DHT22;7101;51.600;7.310;2023-03-16T14:00:55;12.20;91.60
14053;DHT22;7101;51.600;7.310;2023-03-16T14:03:28;12.20;91.70
14053;DHT22;7101;51.600;7.310;2023-03-16T14:05:59;12.00;91.40
14053;DHT22;7101;51.600;7.310;2023-03-16T14:08:27;12.10;91.60
14053;DHT22;7101;51.600;7.310;2023-03-16T14:10:55;12.20;91.80
14053;DHT22;7101;51.600;7.310;2023-03-16T14:13:25;12.10;91.90
14053;DHT22;7101;51.600;7.310;2023-03-16T14:15:59;11.90;92.00
14053;DHT22;7101;51.600;7.310;2023-03-16T14:18:31;11.80;91.20
14053;DHT22;7101;51.600;7.310;2023-03-16T14:21:05;11.80;91.70
14053;DHT22;7101;51.600;7.310;2023-03-16T14:23:36;11.90;91.70
14053;DHT22;7101;51.600;7.310;2023-03-16T14:26:05;12.10;93.00
14053;DHT22;7101;51.600;7.310;2023-03-16T14:28:37;12.50;92.20
14053;DHT22;7101;51.600;7.310;2023-03-16T14:31:07;12.70;91.70
14053;DHT22;7101;51.600;7.310;2023-03-16T14:33:36;12.40;92.30
14053;DHT22;7101;51.600;7.310;2023-03-16T14:36:10;12.40;91.20
14053;DHT22;7101;51.600;7.310;2023-03-16T14:38:39;12.50;91.70
14053;DHT22;7101;51.600;7.310;2023-03-16T14:41:20;12.10;90.80
14053;DHT22;7101;51.600;7.310;2023-03-16T14:43:49;12.10;91.60
14053;DHT22;7101;51.600;7.310;2023-03-16T14:46:23;12.10;92.30
14053;DHT22;7101;51.600;7.310;2023-03-16T14:48:59;12.20;91.90
14053;DHT22;7101;51.600;7.310;2023-03-16T14:51:29;12.30;92.20
14053;DHT22;7101;51.600;7.310;2023-03-16T14:53:57;12.30;92.20
14053;DHT22;7101;51.600;7.310;2023-03-16T14:56:31;12.20;91.50
14053;DHT22;7101;51.600;7.310;2023-03-16T14:58:58;12.10;92.30
14053;DHT22;7101;51.600;7.310;2023-03-16T15:01:25;12.10;91.80
14053;DHT22;7101;51.600;7.310;2023-03-16T15:03:52;12.10;93.50
14053;DHT22;7101;51.600;7.310;2023-03-16T15:06:19;12.10;93.50
14053;DHT22;7101;51.600;7.310;2023-03-16T15:08:47;12.10;93.60
14053;DHT22;7101;51.600;7.310;2023-03-16T15:11:15;12.10;94.10
14053;DHT22;7101;51.600;7.310;2023-03-16T15:13:46;12.20;93.70
14053;DHT22;7101;51.600;7.310;2023-03-16T15:16:28;12.10;93.70
14053;DHT22;7101;51.600;7.310;2023-03-16T15:18:55;12.10;92.40
14053;DHT22;7101;51.600;7.310;2023-03-16T15:21:26;12.00;93.20
14053;DHT22;7101;51.600;7.310;2023-03-16T15:23:56;12.20;93.70
14053;DHT22;7101;51.600;7.310;2023-03-16T15:26:25;12.30;93.00
14053;DHT22;7101;51.600;7.310;2023-03-16T15:28:53;12.40;93.30
14053;DHT22;7101;51.600;7.310;2023-03-16T15:31:21;12.40;93.20
14053;DHT22;7101;51.600;7.310;2023-03-16T15:33:48;12.50;93.00
14053;DHT22;7101;51.600;7.310;2023-03-16T15:36:16;12.50;93.00
14053;DHT22;7101;51.600;7.310;2023-03-16T15:38:44;12.60;92.70
14053;DHT22;7101;51.600;7.310;2023-03-16T15:41:13;12.60;92.80
14053;DHT22;7101;51.600;7.310;2023-03-16T15:43:41;12.50;92.50
14053;DHT22;7101;51.600;7.310;2023-03-16T15:46:08;12.50;92.40
14053;DHT22;7101;51.600;7.310;2023-03-16T15:48:36;12.40;93.10
14053;DHT22;7101;51.600;7.310;2023-03-16T15:51:06;12.30;92.40
14053;DHT22;7101;51.600;7.310;2023-03-16T15:53:37;12.30;92.40
14053;DHT22;7101;51.600;7.310;2023-03-16T15:56:06;12.20;93.00
14053;DHT22;7101;51.600;7.310;2023-03-16T15:58:38;12.20;93.70
14053;DHT22;7101;51.600;7.310;2023-03-16T16:01:06;12.30;93.90
14053;DHT22;7101;51.600;7.310;2023-03-16T16:03:33;12.30;93.50
14053;DHT22;7101;51.600;7.310;2023-03-16T16:06:00;12.20;93.40
14053;DHT22;7101;51.600;7.310;2023-03-16T16:08:28;12.10;94.00
14053;DHT22;7101;51.600;7.310;2023-03-16T16:10:56;12.10;93.70
14053;DHT22;7101;51.600;7.310;2023-03-16T16:13:25;12.10;94.30